createdAt,value
2023-09-08T00:02:30.373Z,19.08
2023-09-08T00:04:57.220Z,19.06
2023-09-08T00:07:24.061Z,19.08
2023-09-08T00:09:50.926Z,19.08
2023-09-08T00:12:18.133Z,19.05
2023-09-08T00:14:45.326Z,19.04
2023-09-08T00:17:12.233Z,19.02
2023-09-08T00:19:39.759Z,19.02
2023-09-08T00:22:07.584Z,19.01
2023-09-08T00:24:34.770Z,19.02
2023-09-08T00:27:01.646Z,19.00
2023-09-08T00:29:28.672Z,18.98
2023-09-08T00:31:55.608Z,18.94
2023-09-08T00:34:22.349Z,18.93
2023-09-08T00:36:49.024Z,18.94
2023-09-08T00:39:15.742Z,18.98
2023-09-08T00:41:42.432Z,18.93
2023-09-08T00:44:10.320Z,18.91
2023-09-08T00:46:37.364Z,18.87
2023-09-08T00:49:04.364Z,18.85
2023-09-08T00:51:31.399Z,18.86
2023-09-08T00:53:58.291Z,18.89
2023-09-08T00:56:25.648Z,18.85
2023-09-08T00:58:52.466Z,18.79
2023-09-08T01:01:19.199Z,18.80
2023-09-08T01:03:45.932Z,18.75
2023-09-08T01:06:13.579Z,18.72
2023-09-08T01:08:40.760Z,18.69
2023-09-08T01:11:08.342Z,18.64
2023-09-08T01:13:35.125Z,18.60
2023-09-08T01:16:02.977Z,18.51
2023-09-08T01:18:29.873Z,18.49
2023-09-08T01:21:27.528Z,18.44
2023-09-08T01:24:31.215Z,18.40
2023-09-08T01:26:58.473Z,18.39
2023-09-08T01:29:25.856Z,18.34
2023-09-08T01:31:52.942Z,18.34
2023-09-08T01:34:20.933Z,18.30
2023-09-08T01:36:47.775Z,18.26
2023-09-08T01:39:14.439Z,18.23
2023-09-08T01:41:41.100Z,18.20
2023-09-08T01:44:11.645Z,18.18
2023-09-08T01:46:39.892Z,18.14
2023-09-08T01:49:06.790Z,18.10
2023-09-08T01:51:33.597Z,18.09
2023-09-08T01:54:00.319Z,18.07
2023-09-08T01:56:27.392Z,18.02
2023-09-08T01:58:54.168Z,18.05
2023-09-08T02:01:20.972Z,18.06
2023-09-08T02:03:47.804Z,18.06
2023-09-08T02:06:14.461Z,18.05
2023-09-08T02:08:41.217Z,18.04
2023-09-08T02:11:07.886Z,18.03
2023-09-08T02:13:34.633Z,17.97
2023-09-08T02:16:01.401Z,17.92
2023-09-08T02:18:29.453Z,17.86
2023-09-08T02:20:56.293Z,17.82
2023-09-08T02:23:23.050Z,17.84
2023-09-08T02:25:50.057Z,17.77
2023-09-08T02:28:16.883Z,17.74
2023-09-08T02:30:43.743Z,17.70
2023-09-08T02:33:10.679Z,17.71
2023-09-08T02:35:40.014Z,17.68
2023-09-08T02:38:06.972Z,17.65
2023-09-08T02:40:35.562Z,17.59
2023-09-08T02:43:03.421Z,17.53
2023-09-08T02:45:31.105Z,17.53
2023-09-08T02:47:58.958Z,17.48
2023-09-08T02:50:25.699Z,17.46
2023-09-08T02:52:52.453Z,17.45
2023-09-08T02:55:19.225Z,17.42
2023-09-08T02:57:45.986Z,17.35
2023-09-08T03:00:13.299Z,17.34
2023-09-08T03:02:40.081Z,17.33
2023-09-08T03:05:07.234Z,17.31
2023-09-08T03:07:35.114Z,17.28
2023-09-08T03:10:01.887Z,17.29
2023-09-08T03:12:28.620Z,17.24
2023-09-08T03:14:56.133Z,17.25
2023-09-08T03:17:22.878Z,17.24
2023-09-08T03:19:49.693Z,17.21
2023-09-08T03:22:16.453Z,17.19
2023-09-08T03:24:43.227Z,17.16
2023-09-08T03:27:09.897Z,17.12
2023-09-08T03:29:36.601Z,17.13
2023-09-08T03:32:03.575Z,17.12
2023-09-08T03:34:30.487Z,17.13
2023-09-08T03:36:57.247Z,17.08
2023-09-08T03:39:23.910Z,17.05
2023-09-08T03:41:50.684Z,17.04
2023-09-08T03:44:17.442Z,17.00
2023-09-08T03:46:44.228Z,17.01
2023-09-08T03:49:11.005Z,17.02
2023-09-08T03:51:37.664Z,16.96
2023-09-08T03:54:04.756Z,16.95
2023-09-08T03:56:31.621Z,16.94
2023-09-08T03:58:58.420Z,16.91
2023-09-08T04:01:25.266Z,16.92
2023-09-08T04:03:52.083Z,16.92
2023-09-08T04:06:18.829Z,16.89
2023-09-08T04:08:45.585Z,16.85
2023-09-08T04:11:12.289Z,16.83
2023-09-08T04:13:38.970Z,16.80
2023-09-08T04:16:06.438Z,16.79
2023-09-08T04:18:33.292Z,16.79
2023-09-08T04:21:00.148Z,16.76
2023-09-08T04:23:26.924Z,16.80
2023-09-08T04:25:53.671Z,16.80
2023-09-08T04:28:20.470Z,16.77
2023-09-08T04:30:47.204Z,16.77
2023-09-08T04:33:14.049Z,16.70
2023-09-08T04:35:40.882Z,16.72
2023-09-08T04:38:08.017Z,16.70
2023-09-08T04:40:34.871Z,16.68
2023-09-08T04:43:01.816Z,16.66
2023-09-08T04:45:28.638Z,16.66
2023-09-08T04:47:55.451Z,16.67
2023-09-08T04:50:22.284Z,16.67
2023-09-08T04:52:49.082Z,16.65
2023-09-08T04:55:15.876Z,16.65
2023-09-08T04:57:42.561Z,16.64
2023-09-08T05:00:09.708Z,16.61
2023-09-08T05:02:36.648Z,16.61
2023-09-08T05:05:03.503Z,16.63
2023-09-08T05:07:30.204Z,16.60
2023-09-08T05:09:57.987Z,16.63
2023-09-08T05:12:25.068Z,16.66
2023-09-08T05:14:57.004Z,16.64
2023-09-08T05:17:25.420Z,16.65
2023-09-08T05:19:52.139Z,16.66
2023-09-08T05:22:18.945Z,16.64
2023-09-08T05:24:45.654Z,16.64
2023-09-08T05:27:12.482Z,16.69
2023-09-08T05:29:39.326Z,16.69
2023-09-08T05:32:06.189Z,16.73
2023-09-08T05:34:32.971Z,16.74
2023-09-08T05:36:59.728Z,16.74
2023-09-08T05:39:26.554Z,16.75
2023-09-08T05:41:53.290Z,16.76
2023-09-08T05:44:20.025Z,16.78
2023-09-08T05:46:46.931Z,16.81
2023-09-08T05:49:15.399Z,16.84
2023-09-08T05:51:42.284Z,16.82
2023-09-08T05:54:09.052Z,16.85
2023-09-08T05:56:35.847Z,16.86
2023-09-08T05:59:02.762Z,16.92
2023-09-08T06:01:30.662Z,16.94
2023-09-08T06:03:57.672Z,16.95
2023-09-08T06:06:24.631Z,16.97
2023-09-08T06:08:51.297Z,16.98
2023-09-08T06:11:18.324Z,17.07
2023-09-08T06:13:45.023Z,17.21
2023-09-08T06:16:11.826Z,17.39
2023-09-08T06:18:41.593Z,17.56
2023-09-08T06:21:08.693Z,17.71
2023-09-08T06:23:37.845Z,17.90
2023-09-08T06:26:04.925Z,18.09
2023-09-08T06:28:31.778Z,18.28
2023-09-08T06:30:58.655Z,18.50
2023-09-08T06:33:25.936Z,18.61
2023-09-08T06:35:55.038Z,18.83
2023-09-08T06:38:21.978Z,19.04
2023-09-08T06:40:49.338Z,19.28
2023-09-08T06:43:16.115Z,19.51
2023-09-08T06:45:42.839Z,19.70
2023-09-08T06:48:09.682Z,19.91
2023-09-08T06:50:36.544Z,20.07
2023-09-08T06:53:03.337Z,20.26
2023-09-08T06:55:30.141Z,20.45
2023-09-08T06:57:56.954Z,20.61
2023-09-08T07:00:23.708Z,20.80
2023-09-08T07:02:53.524Z,20.99
2023-09-08T07:05:20.438Z,21.14
2023-09-08T07:07:49.413Z,21.27
2023-09-08T07:10:16.185Z,21.43
2023-09-08T07:12:42.897Z,21.53
2023-09-08T07:15:10.588Z,21.70
2023-09-08T07:17:37.383Z,21.76
2023-09-08T07:20:04.644Z,21.94
2023-09-08T07:22:31.375Z,22.08
2023-09-08T07:24:58.058Z,22.23
2023-09-08T07:27:24.810Z,22.38
2023-09-08T07:29:51.506Z,22.50
2023-09-08T07:32:19.136Z,22.58
2023-09-08T07:34:45.968Z,22.78
2023-09-08T07:37:12.760Z,22.86
2023-09-08T07:39:39.529Z,23.02
2023-09-08T07:42:06.345Z,23.17
2023-09-08T07:44:33.251Z,23.29
2023-09-08T07:47:00.065Z,23.42
2023-09-08T07:49:26.844Z,23.51
2023-09-08T07:51:53.630Z,23.61
2023-09-08T07:54:20.948Z,23.74
2023-09-08T07:56:48.302Z,23.82
2023-09-08T07:59:15.148Z,23.90
2023-09-08T08:01:42.039Z,23.96
2023-09-08T08:04:09.029Z,24.02
2023-09-08T08:06:36.165Z,24.12
2023-09-08T08:09:03.395Z,24.09
2023-09-08T08:11:30.347Z,24.12
2023-09-08T08:13:58.078Z,24.17
2023-09-08T08:16:25.664Z,24.24
2023-09-08T08:18:52.933Z,24.29
2023-09-08T08:21:19.917Z,24.36
2023-09-08T08:23:46.724Z,24.40
2023-09-08T08:26:13.382Z,24.47
2023-09-08T08:28:40.123Z,24.56
2023-09-08T08:31:06.947Z,24.65
2023-09-08T08:33:33.929Z,24.74
2023-09-08T08:36:01.576Z,24.81
2023-09-08T08:38:28.500Z,24.85
2023-09-08T08:40:55.280Z,24.89
2023-09-08T08:43:23.769Z,24.86
2023-09-08T08:45:51.620Z,24.88
2023-09-08T08:48:22.101Z,24.91
2023-09-08T08:50:49.385Z,24.96
2023-09-08T08:53:18.593Z,25.04
2023-09-08T08:55:47.114Z,25.08
2023-09-08T08:58:15.887Z,25.07
2023-09-08T09:00:43.498Z,25.09
2023-09-08T09:03:15.256Z,25.12
2023-09-08T09:05:46.646Z,25.19
2023-09-08T09:08:30.558Z,25.26
2023-09-08T09:10:57.297Z,25.29
2023-09-08T09:13:23.994Z,25.32
2023-09-08T09:15:52.038Z,25.36
2023-09-08T09:18:18.929Z,25.40
2023-09-08T09:20:56.571Z,25.41
2023-09-08T09:23:33.888Z,25.45
2023-09-08T09:26:02.391Z,25.48
2023-09-08T09:28:32.356Z,25.48
2023-09-08T09:31:00.628Z,25.50
2023-09-08T09:33:29.254Z,25.56
2023-09-08T09:35:56.163Z,25.60
2023-09-08T09:38:23.221Z,25.60
2023-09-08T09:40:50.704Z,25.64
2023-09-08T09:43:18.288Z,25.65
2023-09-08T09:45:45.451Z,25.70
2023-09-08T09:48:13.568Z,25.73
2023-09-08T09:50:42.398Z,25.76
2023-09-08T09:53:13.055Z,25.80
2023-09-08T09:55:41.892Z,25.84
2023-09-08T09:58:12.004Z,25.88
2023-09-08T10:00:40.751Z,25.91
2023-09-08T10:03:08.342Z,25.93
2023-09-08T10:05:35.355Z,25.99
2023-09-08T10:08:02.272Z,26.01
2023-09-08T10:10:31.702Z,26.04
2023-09-08T10:13:03.871Z,26.08
2023-09-08T10:15:32.897Z,26.08
2023-09-08T10:18:01.475Z,26.13
2023-09-08T10:20:30.035Z,26.14
2023-09-08T10:23:13.198Z,26.15
2023-09-08T10:25:45.155Z,26.18
2023-09-08T10:28:14.312Z,26.21
2023-09-08T10:30:41.897Z,26.25
2023-09-08T10:33:10.158Z,26.25
2023-09-08T10:35:37.398Z,26.30
2023-09-08T10:38:29.893Z,26.35
2023-09-08T10:41:18.620Z,26.40
2023-09-08T10:43:55.602Z,26.42
2023-09-08T10:46:23.964Z,26.40
2023-09-08T10:48:50.853Z,26.42
2023-09-08T10:51:20.348Z,26.44
2023-09-08T10:53:53.174Z,26.47
2023-09-08T10:56:19.970Z,26.49
2023-09-08T10:58:55.596Z,26.53
2023-09-08T11:01:28.771Z,26.57
2023-09-08T11:03:56.086Z,26.60
2023-09-08T11:06:23.763Z,26.65
2023-09-08T11:08:54.559Z,26.67
2023-09-08T11:11:21.680Z,26.69
2023-09-08T11:13:48.615Z,26.72
2023-09-08T11:16:16.738Z,26.77
2023-09-08T11:18:46.549Z,26.81
2023-09-08T11:21:13.445Z,26.83
2023-09-08T11:23:40.340Z,26.82
2023-09-08T11:26:07.781Z,26.86
2023-09-08T11:28:35.095Z,26.86
2023-09-08T11:31:04.428Z,26.89
2023-09-08T11:33:36.205Z,26.91
2023-09-08T11:36:03.037Z,26.94
2023-09-08T11:38:31.151Z,26.97
2023-09-08T11:40:59.921Z,26.99
2023-09-08T11:43:28.023Z,27.03
2023-09-08T11:45:54.941Z,27.06
2023-09-08T11:48:21.793Z,27.04
2023-09-08T11:50:48.468Z,27.07
2023-09-08T11:53:20.856Z,27.08
2023-09-08T11:55:48.074Z,27.10
2023-09-08T11:58:15.815Z,27.12
2023-09-08T12:00:42.765Z,27.14
2023-09-08T12:03:13.904Z,27.16
2023-09-08T12:05:41.223Z,27.19
2023-09-08T12:08:07.988Z,27.21
2023-09-08T12:10:44.473Z,27.20
2023-09-08T12:13:11.553Z,27.22
2023-09-08T12:15:40.310Z,27.24
2023-09-08T12:18:07.388Z,27.26
2023-09-08T12:20:34.732Z,27.27
2023-09-08T12:23:04.181Z,27.32
2023-09-08T12:25:36.860Z,27.33
2023-09-08T12:28:06.027Z,27.36
2023-09-08T12:30:34.342Z,27.37
2023-09-08T12:33:02.960Z,27.39
2023-09-08T12:35:32.416Z,27.40
2023-09-08T12:38:06.713Z,27.43
2023-09-08T12:40:37.997Z,27.46
2023-09-08T12:43:12.132Z,27.47
2023-09-08T12:45:51.184Z,27.48
2023-09-08T12:48:17.918Z,27.48
2023-09-08T12:50:44.638Z,27.51
2023-09-08T12:53:11.304Z,27.53
2023-09-08T12:55:38.010Z,27.54
2023-09-08T12:58:04.998Z,27.57
2023-09-08T13:00:31.761Z,27.55
2023-09-08T13:02:58.533Z,27.58
2023-09-08T13:05:25.319Z,27.58
2023-09-08T13:07:52.143Z,27.58
2023-09-08T13:10:18.942Z,27.60
2023-09-08T13:12:46.338Z,27.61
2023-09-08T13:15:13.166Z,27.63
2023-09-08T13:17:39.918Z,27.66
2023-09-08T13:20:07.890Z,27.67
2023-09-08T13:22:35.537Z,27.67
2023-09-08T13:25:02.747Z,27.66
2023-09-08T13:27:29.477Z,27.66
2023-09-08T13:30:08.410Z,27.65
2023-09-08T13:32:35.564Z,27.66
2023-09-08T13:35:02.419Z,27.66
2023-09-08T13:37:29.276Z,27.66
2023-09-08T13:39:56.113Z,27.68
2023-09-08T13:42:22.974Z,27.68
2023-09-08T13:44:50.204Z,27.67
2023-09-08T13:47:16.950Z,27.65
2023-09-08T13:49:44.466Z,27.66
2023-09-08T13:52:12.855Z,27.66
2023-09-08T13:54:45.206Z,27.63
2023-09-08T13:57:14.126Z,27.66
2023-09-08T13:59:43.500Z,27.70
2023-09-08T14:02:38.250Z,27.71
2023-09-08T14:05:02.593Z,27.73
2023-09-08T14:10:06.557Z,27.74
2023-09-08T14:12:37.898Z,27.74
2023-09-08T14:15:05.857Z,27.75
2023-09-08T14:17:32.696Z,27.74
2023-09-08T14:19:59.475Z,27.75
2023-09-08T14:22:27.840Z,27.74
2023-09-08T14:24:54.731Z,27.65
2023-09-08T14:27:21.426Z,27.60
2023-09-08T14:29:48.199Z,27.57
2023-09-08T14:32:15.025Z,27.52
2023-09-08T14:34:41.780Z,27.47
2023-09-08T14:37:11.361Z,27.47
2023-09-08T14:39:38.638Z,27.44
2023-09-08T14:42:06.872Z,27.41
2023-09-08T14:44:33.852Z,27.36
2023-09-08T14:47:00.671Z,27.35
2023-09-08T14:49:27.328Z,27.32
2023-09-08T14:51:53.986Z,27.30
2023-09-08T14:54:20.681Z,27.29
2023-09-08T14:56:47.415Z,27.26
2023-09-08T14:59:14.122Z,27.25
2023-09-08T15:01:42.090Z,27.22
2023-09-08T15:04:09.047Z,27.22
2023-09-08T15:06:35.922Z,27.20
2023-09-08T15:09:02.727Z,27.18
2023-09-08T15:11:29.801Z,27.17
2023-09-08T15:13:56.578Z,27.17
2023-09-08T15:16:23.390Z,27.16
2023-09-08T15:18:51.305Z,27.16
2023-09-08T15:21:18.976Z,27.14
2023-09-08T15:23:46.451Z,27.16
2023-09-08T15:26:13.194Z,27.15
2023-09-08T15:28:40.045Z,27.14
2023-09-08T15:31:06.884Z,27.13
2023-09-08T15:33:33.733Z,27.12
2023-09-08T15:36:00.767Z,27.11
2023-09-08T15:38:27.526Z,27.10
2023-09-08T15:41:09.774Z,27.10
2023-09-08T15:43:40.751Z,27.09
2023-09-08T15:46:09.194Z,27.07
2023-09-08T15:48:36.805Z,27.07
2023-09-08T15:51:04.296Z,27.07
2023-09-08T15:53:32.052Z,27.07
2023-09-08T15:55:59.120Z,27.07
2023-09-08T15:58:25.997Z,27.05
2023-09-08T16:00:52.799Z,27.06
2023-09-08T16:03:19.704Z,27.05
2023-09-08T16:05:46.665Z,27.05
2023-09-08T16:08:13.390Z,27.04
2023-09-08T16:10:40.165Z,27.03
2023-09-08T16:13:06.895Z,27.02
2023-09-08T16:15:33.777Z,27.02
2023-09-08T16:18:01.292Z,27.00
2023-09-08T16:20:28.252Z,26.97
2023-09-08T16:22:54.992Z,26.93
2023-09-08T16:25:21.806Z,26.92
2023-09-08T16:27:48.570Z,26.88
2023-09-08T16:30:15.460Z,26.88
2023-09-08T16:32:42.240Z,26.88
2023-09-08T16:56:10.301Z,26.58
2023-09-08T16:58:37.333Z,26.54
2023-09-08T17:01:06.988Z,26.54
2023-09-08T17:03:33.798Z,26.47
2023-09-08T17:06:00.669Z,26.42
2023-09-08T17:08:28.864Z,26.37
2023-09-08T17:10:57.336Z,26.30
2023-09-08T17:13:25.037Z,26.25
2023-09-08T17:15:51.883Z,26.16
2023-09-08T17:18:20.707Z,26.12
2023-09-08T17:20:49.784Z,26.08
2023-09-08T17:23:16.479Z,26.06
2023-09-08T17:25:44.660Z,26.02
2023-09-08T17:28:12.194Z,25.99
2023-09-08T17:30:39.054Z,25.94
2023-09-08T17:33:06.017Z,25.89
2023-09-08T17:35:36.350Z,25.82
2023-09-08T17:38:03.538Z,25.74
2023-09-08T17:40:30.365Z,25.68
2023-09-08T17:42:59.859Z,25.59
2023-09-08T17:45:26.649Z,25.50
2023-09-08T18:00:26.364Z,25.28
2023-09-08T18:02:53.126Z,25.15
2023-09-08T18:05:20.088Z,25.06
2023-09-08T18:07:46.809Z,24.96
2023-09-08T18:10:15.143Z,24.84
2023-09-08T18:12:42.516Z,24.75
2023-09-08T18:15:11.661Z,24.67
2023-09-08T18:17:38.538Z,24.60
2023-09-08T18:20:05.763Z,24.49
2023-09-08T18:22:33.126Z,24.39
2023-09-08T18:25:01.881Z,24.32
2023-09-08T18:27:31.222Z,24.24
2023-09-08T18:29:58.177Z,24.16
2023-09-08T18:32:25.095Z,24.11
2023-09-08T18:34:54.459Z,24.03
2023-09-08T18:37:21.694Z,23.97
2023-09-08T18:39:48.421Z,23.90
2023-09-08T18:42:15.176Z,23.82
2023-09-08T18:44:43.583Z,23.77
2023-09-08T18:47:11.335Z,23.69
2023-09-08T18:49:38.180Z,23.64
2023-09-08T18:52:05.940Z,23.56
2023-09-08T18:54:33.319Z,23.51
2023-09-08T18:57:00.271Z,23.47
2023-09-08T18:59:27.053Z,23.41
2023-09-08T19:01:54.641Z,23.37
2023-09-08T19:04:21.495Z,23.36
2023-09-08T19:06:48.169Z,23.35
2023-09-08T19:09:14.861Z,23.30
2023-09-08T19:11:41.758Z,23.24
2023-09-08T19:14:08.523Z,23.14
2023-09-08T19:16:35.281Z,23.11
2023-09-08T19:19:02.030Z,23.10
2023-09-08T19:21:31.041Z,23.07
2023-09-08T19:23:57.758Z,23.01
2023-09-08T19:26:24.499Z,22.96
2023-09-08T19:28:51.218Z,22.91
2023-09-08T19:31:18.063Z,22.89
2023-09-08T19:33:44.878Z,22.81
2023-09-08T19:36:11.877Z,22.72
2023-09-08T19:38:38.516Z,22.68
2023-09-08T19:41:05.576Z,22.66
2023-09-08T19:43:32.689Z,22.64
2023-09-08T19:46:06.073Z,22.61
2023-09-08T19:48:36.278Z,22.57
2023-09-08T19:51:06.881Z,22.55
2023-09-08T19:53:33.617Z,22.53
2023-09-08T19:56:00.477Z,22.53
2023-09-08T19:58:30.597Z,22.44
2023-09-08T20:01:08.051Z,22.43
2023-09-08T20:03:35.694Z,22.34
2023-09-08T20:06:03.869Z,22.25
2023-09-08T20:08:30.811Z,22.19
2023-09-08T20:10:57.472Z,22.11
2023-09-08T20:13:24.155Z,22.03
2023-09-08T20:16:06.492Z,21.98
2023-09-08T20:18:34.397Z,21.91
2023-09-08T20:21:06.208Z,21.90
2023-09-08T20:23:37.105Z,21.83
2023-09-08T20:26:04.189Z,21.78
2023-09-08T20:28:32.997Z,21.71
2023-09-08T20:31:14.859Z,21.67
2023-09-08T20:33:43.931Z,21.59
2023-09-08T20:36:10.714Z,21.56
2023-09-08T20:38:39.224Z,21.55
2023-09-08T20:41:06.628Z,21.46
2023-09-08T20:43:34.632Z,21.44
2023-09-08T20:46:04.804Z,21.41
2023-09-08T20:48:33.192Z,21.40
2023-09-08T20:51:04.270Z,21.35
2023-09-08T20:53:31.377Z,21.31
2023-09-08T20:55:59.133Z,21.26
2023-09-08T20:58:27.255Z,21.21
2023-09-08T21:00:59.997Z,21.22
2023-09-08T21:03:26.719Z,21.21
2023-09-08T21:05:53.432Z,21.19
2023-09-08T21:08:20.927Z,21.15
2023-09-08T21:10:48.382Z,21.13
2023-09-08T21:13:15.308Z,21.10
2023-09-08T21:15:43.059Z,21.04
2023-09-08T21:18:10.223Z,20.99
2023-09-08T21:20:37.226Z,20.96
2023-09-08T21:23:04.346Z,20.91
2023-09-08T21:25:35.274Z,20.89
2023-09-08T21:28:02.917Z,20.84
2023-09-08T21:30:30.798Z,20.79
2023-09-08T21:32:57.601Z,20.74
2023-09-08T21:35:27.401Z,20.70
2023-09-08T21:37:54.293Z,20.70
2023-09-08T21:40:21.063Z,20.64
2023-09-08T21:42:47.802Z,20.62
2023-09-08T21:45:14.858Z,20.57
2023-09-08T21:47:41.888Z,20.55
2023-09-08T21:50:09.269Z,20.50
2023-09-08T21:52:38.888Z,20.47
2023-09-08T21:55:07.456Z,20.45
2023-09-08T21:57:34.435Z,20.41
2023-09-08T22:00:01.197Z,20.36
2023-09-08T22:02:28.001Z,20.36
2023-09-08T22:04:55.905Z,20.28
2023-09-08T22:07:22.861Z,20.27
2023-09-08T22:09:52.019Z,20.26
2023-09-08T22:12:18.723Z,20.19
2023-09-08T22:14:45.410Z,20.13
2023-09-08T22:17:12.385Z,20.11
2023-09-08T22:19:39.117Z,20.06
2023-09-08T22:22:06.025Z,20.06
2023-09-08T22:24:33.150Z,20.05
2023-09-08T22:27:01.396Z,20.00
2023-09-08T22:29:28.108Z,20.00
2023-09-08T22:31:54.874Z,19.97
2023-09-08T22:34:21.791Z,19.91
2023-09-08T22:36:48.703Z,19.88
2023-09-08T22:39:15.413Z,19.85
2023-09-08T22:41:43.900Z,19.82
2023-09-08T22:44:10.679Z,19.82
2023-09-08T22:46:37.484Z,19.81
2023-09-08T22:49:04.941Z,19.80
2023-09-08T22:51:32.718Z,19.81
2023-09-08T22:53:59.409Z,19.75
2023-09-08T22:56:26.877Z,19.73
2023-09-08T22:58:56.470Z,19.68
2023-09-08T23:01:25.551Z,19.67
2023-09-08T23:03:52.439Z,19.63
2023-09-08T23:06:21.204Z,19.58
2023-09-08T23:08:47.854Z,19.55
2023-09-08T23:11:14.650Z,19.50
2023-09-08T23:13:41.631Z,19.49
2023-09-08T23:16:14.949Z,19.47
2023-09-08T23:18:41.954Z,19.47
2023-09-08T23:21:08.826Z,19.42
2023-09-08T23:23:36.225Z,19.33
2023-09-08T23:26:05.892Z,19.28
2023-09-08T23:28:32.626Z,19.28
2023-09-08T23:30:59.450Z,19.26
2023-09-08T23:33:26.266Z,19.22
2023-09-08T23:35:56.160Z,19.19
2023-09-08T23:38:22.828Z,19.15
2023-09-08T23:40:49.504Z,19.15
2023-09-08T23:43:16.203Z,19.10
2023-09-08T23:45:46.736Z,19.09
2023-09-08T23:48:13.743Z,19.04
2023-09-08T23:50:49.607Z,19.06
2023-09-08T23:53:16.349Z,18.98
2023-09-08T23:55:43.006Z,18.98
2023-09-08T23:58:09.718Z,18.90
